sensor_id;sensor_type;location;lat;lon;timestamp;P1;durP1;ratioP1;P2;durP2;ratioP2
52786;SDS011;38661;53.152;5.846;2023-02-11T00:01:47;27.58;;;7.13;;
52786;SDS011;38661;53.152;5.846;2023-02-11T00:04:13;29.42;;;8.05;;
52786;SDS011;38661;53.152;5.846;2023-02-11T00:06:38;29.38;;;7.97;;
52786;SDS011;38661;53.152;5.846;2023-02-11T00:09:04;28.13;;;8.90;;
52786;SDS011;38661;53.152;5.846;2023-02-11T00:11:31;24.10;;;7.93;;
52786;SDS011;38661;53.152;5.846;2023-02-11T00:13:58;21.63;;;8.15;;
52786;SDS011;38661;53.152;5.846;2023-02-11T00:16:25;24.88;;;8.73;;
52786;SDS011;38661;53.152;5.846;2023-02-11T00:18:52;28.25;;;9.02;;
52786;SDS011;38661;53.152;5.846;2023-02-11T00:21:22;22.40;;;8.43;;
52786;SDS011;38661;53.152;5.846;2023-02-11T00:23:49;28.40;;;7.90;;
52786;SDS011;38661;53.152;5.846;2023-02-11T00:28:46;27.55;;;9.32;;
52786;SDS011;38661;53.152;5.846;2023-02-11T00:31:13;27.67;;;10.18;;
52786;SDS011;38661;53.152;5.846;2023-02-11T00:33:40;25.40;;;8.88;;
52786;SDS011;38661;53.152;5.846;2023-02-11T00:36:07;33.38;;;10.57;;
52786;SDS011;38661;53.152;5.846;2023-02-11T00:38:44;29.20;;;8.80;;
52786;SDS011;38661;53.152;5.846;2023-02-11T00:41:11;25.50;;;9.57;;
52786;SDS011;38661;53.152;5.846;2023-02-11T00:43:38;32.55;;;11.32;;
52786;SDS011;38661;53.152;5.846;2023-02-11T00:46:04;29.75;;;9.52;;
52786;SDS011;38661;53.152;5.846;2023-02-11T00:48:31;25.58;;;7.53;;
52786;SDS011;38661;53.152;5.846;2023-02-11T00:50:56;29.75;;;11.23;;
52786;SDS011;38661;53.152;5.846;2023-02-11T00:53:22;29.38;;;10.00;;
52786;SDS011;38661;53.152;5.846;2023-02-11T00:55:48;28.98;;;10.48;;
52786;SDS011;38661;53.152;5.846;2023-02-11T00:58:13;33.42;;;10.48;;
52786;SDS011;38661;53.152;5.846;2023-02-11T01:00:39;37.08;;;12.65;;
52786;SDS011;38661;53.152;5.846;2023-02-11T01:03:05;27.83;;;10.52;;
52786;SDS011;38661;53.152;5.846;2023-02-11T01:05:30;36.55;;;13.20;;
52786;SDS011;38661;53.152;5.846;2023-02-11T01:07:56;21.70;;;9.52;;
52786;SDS011;38661;53.152;5.846;2023-02-11T01:10:22;34.20;;;13.55;;
52786;SDS011;38661;53.152;5.846;2023-02-11T01:12:48;33.03;;;11.63;;
52786;SDS011;38661;53.152;5.846;2023-02-11T01:15:14;26.02;;;10.77;;
52786;SDS011;38661;53.152;5.846;2023-02-11T01:17:41;32.25;;;11.90;;
52786;SDS011;38661;53.152;5.846;2023-02-11T01:20:07;36.15;;;12.52;;
52786;SDS011;38661;53.152;5.846;2023-02-11T01:22:38;28.73;;;11.90;;
52786;SDS011;38661;53.152;5.846;2023-02-11T01:25:04;31.67;;;10.43;;
52786;SDS011;38661;53.152;5.846;2023-02-11T01:27:31;27.58;;;12.20;;
52786;SDS011;38661;53.152;5.846;2023-02-11T01:29:57;31.88;;;12.38;;
52786;SDS011;38661;53.152;5.846;2023-02-11T01:32:23;28.33;;;11.55;;
52786;SDS011;38661;53.152;5.846;2023-02-11T01:34:48;35.53;;;12.48;;
52786;SDS011;38661;53.152;5.846;2023-02-11T01:37:14;27.88;;;13.43;;
52786;SDS011;38661;53.152;5.846;2023-02-11T01:39:40;35.42;;;13.05;;
52786;SDS011;38661;53.152;5.846;2023-02-11T01:42:06;31.65;;;13.45;;
52786;SDS011;38661;53.152;5.846;2023-02-11T01:44:33;34.55;;;12.75;;
52786;SDS011;38661;53.152;5.846;2023-02-11T01:47:03;30.60;;;11.98;;
52786;SDS011;38661;53.152;5.846;2023-02-11T01:49:31;41.33;;;15.35;;
52786;SDS011;38661;53.152;5.846;2023-02-11T01:54:32;30.83;;;12.43;;
52786;SDS011;38661;53.152;5.846;2023-02-11T01:57:21;30.20;;;14.50;;
52786;SDS011;38661;53.152;5.846;2023-02-11T02:11:03;30.15;;;15.27;;
52786;SDS011;38661;53.152;5.846;2023-02-11T02:13:29;31.92;;;14.32;;
52786;SDS011;38661;53.152;5.846;2023-02-11T02:16:00;34.25;;;16.23;;
52786;SDS011;38661;53.152;5.846;2023-02-11T02:21:17;32.05;;;14.40;;
52786;SDS011;38661;53.152;5.846;2023-02-11T02:37:36;35.58;;;16.30;;
52786;SDS011;38661;53.152;5.846;2023-02-11T02:40:19;33.45;;;17.05;;
52786;SDS011;38661;53.152;5.846;2023-02-11T02:43:12;35.03;;;18.42;;
52786;SDS011;38661;53.152;5.846;2023-02-11T02:45:39;37.42;;;16.25;;
52786;SDS011;38661;53.152;5.846;2023-02-11T02:48:05;34.70;;;16.50;;
52786;SDS011;38661;53.152;5.846;2023-02-11T02:50:33;35.83;;;18.42;;
52786;SDS011;38661;53.152;5.846;2023-02-11T02:58:39;37.67;;;18.60;;
52786;SDS011;38661;53.152;5.846;2023-02-11T03:01:37;34.85;;;15.55;;
52786;SDS011;38661;53.152;5.846;2023-02-11T03:07:06;34.63;;;17.98;;
52786;SDS011;38661;53.152;5.846;2023-02-11T03:12:32;34.55;;;16.42;;
52786;SDS011;38661;53.152;5.846;2023-02-11T03:15:00;39.38;;;17.00;;
52786;SDS011;38661;53.152;5.846;2023-02-11T03:17:27;39.85;;;19.60;;
52786;SDS011;38661;53.152;5.846;2023-02-11T03:19:55;33.97;;;17.13;;
52786;SDS011;38661;53.152;5.846;2023-02-11T03:22:57;31.77;;;16.75;;
52786;SDS011;38661;53.152;5.846;2023-02-11T03:25:18;34.35;;;19.48;;
52786;SDS011;38661;53.152;5.846;2023-02-11T03:27:56;32.08;;;16.75;;
52786;SDS011;38661;53.152;5.846;2023-02-11T03:30:42;32.92;;;17.95;;
52786;SDS011;38661;53.152;5.846;2023-02-11T03:33:15;36.55;;;17.83;;
52786;SDS011;38661;53.152;5.846;2023-02-11T03:35:55;34.13;;;17.45;;
52786;SDS011;38661;53.152;5.846;2023-02-11T03:38:28;33.42;;;18.05;;
52786;SDS011;38661;53.152;5.846;2023-02-11T03:40:58;38.28;;;18.83;;
52786;SDS011;38661;53.152;5.846;2023-02-11T03:43:33;36.10;;;17.70;;
52786;SDS011;38661;53.152;5.846;2023-02-11T03:46:06;34.83;;;18.05;;
52786;SDS011;38661;53.152;5.846;2023-02-11T03:48:35;33.40;;;17.02;;
52786;SDS011;38661;53.152;5.846;2023-02-11T03:51:06;33.53;;;17.90;;
52786;SDS011;38661;53.152;5.846;2023-02-11T03:53:35;36.17;;;18.63;;
52786;SDS011;38661;53.152;5.846;2023-02-11T03:56:04;32.25;;;16.65;;
52786;SDS011;38661;53.152;5.846;2023-02-11T03:58:33;39.33;;;18.67;;
52786;SDS011;38661;53.152;5.846;2023-02-11T04:00:59;35.17;;;18.65;;
52786;SDS011;38661;53.152;5.846;2023-02-11T04:03:26;36.25;;;19.33;;
52786;SDS011;38661;53.152;5.846;2023-02-11T04:05:52;36.97;;;19.77;;
52786;SDS011;38661;53.152;5.846;2023-02-11T04:08:18;35.38;;;18.45;;
52786;SDS011;38661;53.152;5.846;2023-02-11T04:10:44;29.10;;;17.20;;
52786;SDS011;38661;53.152;5.846;2023-02-11T04:13:10;32.47;;;17.70;;
52786;SDS011;38661;53.152;5.846;2023-02-11T04:15:36;36.05;;;19.10;;
52786;SDS011;38661;53.152;5.846;2023-02-11T04:18:02;32.38;;;16.23;;
52786;SDS011;38661;53.152;5.846;2023-02-11T04:20:28;36.88;;;19.08;;
52786;SDS011;38661;53.152;5.846;2023-02-11T04:22:54;36.83;;;18.50;;
52786;SDS011;38661;53.152;5.846;2023-02-11T04:25:19;34.90;;;17.58;;
52786;SDS011;38661;53.152;5.846;2023-02-11T04:27:45;31.15;;;18.23;;
52786;SDS011;38661;53.152;5.846;2023-02-11T04:30:11;31.30;;;16.83;;
52786;SDS011;38661;53.152;5.846;2023-02-11T04:32:37;28.63;;;15.18;;
52786;SDS011;38661;53.152;5.846;2023-02-11T04:35:03;29.08;;;16.40;;
52786;SDS011;38661;53.152;5.846;2023-02-11T04:37:29;38.28;;;17.20;;
52786;SDS011;38661;53.152;5.846;2023-02-11T04:39:55;26.80;;;15.38;;
52786;SDS011;38661;53.152;5.846;2023-02-11T04:42:20;30.60;;;17.63;;
52786;SDS011;38661;53.152;5.846;2023-02-11T04:44:46;29.48;;;16.85;;
52786;SDS011;38661;53.152;5.846;2023-02-11T04:47:12;33.45;;;17.13;;
52786;SDS011;38661;53.152;5.846;2023-02-11T04:49:39;34.40;;;17.05;;
52786;SDS011;38661;53.152;5.846;2023-02-11T04:52:05;36.65;;;19.45;;
52786;SDS011;38661;53.152;5.846;2023-02-11T04:54:32;32.05;;;16.92;;
52786;SDS011;38661;53.152;5.846;2023-02-11T04:56:57;30.92;;;16.98;;
52786;SDS011;38661;53.152;5.846;2023-02-11T04:59:24;35.80;;;16.20;;
52786;SDS011;38661;53.152;5.846;2023-02-11T05:01:50;33.42;;;16.00;;
52786;SDS011;38661;53.152;5.846;2023-02-11T05:04:16;33.22;;;16.10;;
52786;SDS011;38661;53.152;5.846;2023-02-11T05:06:42;36.35;;;17.33;;
52786;SDS011;38661;53.152;5.846;2023-02-11T05:09:09;32.22;;;16.67;;
52786;SDS011;38661;53.152;5.846;2023-02-11T05:11:36;31.75;;;15.10;;
52786;SDS011;38661;53.152;5.846;2023-02-11T05:14:03;32.88;;;15.75;;
52786;SDS011;38661;53.152;5.846;2023-02-11T05:16:29;30.83;;;18.85;;
52786;SDS011;38661;53.152;5.846;2023-02-11T05:18:55;32.72;;;15.02;;
52786;SDS011;38661;53.152;5.846;2023-02-11T05:21:21;28.30;;;14.82;;
52786;SDS011;38661;53.152;5.846;2023-02-11T05:23:46;32.85;;;15.40;;
52786;SDS011;38661;53.152;5.846;2023-02-11T05:26:12;30.55;;;16.92;;
52786;SDS011;38661;53.152;5.846;2023-02-11T05:28:39;31.13;;;15.95;;
52786;SDS011;38661;53.152;5.846;2023-02-11T05:31:06;31.23;;;15.57;;
52786;SDS011;38661;53.152;5.846;2023-02-11T05:33:31;25.60;;;15.85;;
52786;SDS011;38661;53.152;5.846;2023-02-11T05:36:08;31.48;;;17.08;;
52786;SDS011;38661;53.152;5.846;2023-02-11T05:38:35;32.78;;;16.70;;
52786;SDS011;38661;53.152;5.846;2023-02-11T05:41:01;26.65;;;17.27;;
52786;SDS011;38661;53.152;5.846;2023-02-11T05:43:28;28.55;;;16.63;;
52786;SDS011;38661;53.152;5.846;2023-02-11T05:45:54;30.50;;;15.95;;
52786;SDS011;38661;53.152;5.846;2023-02-11T05:48:20;33.08;;;16.77;;
52786;SDS011;38661;53.152;5.846;2023-02-11T05:50:45;27.23;;;15.20;;
52786;SDS011;38661;53.152;5.846;2023-02-11T05:53:11;37.88;;;18.65;;
52786;SDS011;38661;53.152;5.846;2023-02-11T05:55:37;24.67;;;14.38;;
52786;SDS011;38661;53.152;5.846;2023-02-11T05:58:04;29.15;;;15.55;;
52786;SDS011;38661;53.152;5.846;2023-02-11T06:00:30;23.70;;;13.77;;
52786;SDS011;38661;53.152;5.846;2023-02-11T06:02:56;27.45;;;16.15;;
52786;SDS011;38661;53.152;5.846;2023-02-11T06:05:22;27.92;;;17.55;;
52786;SDS011;38661;53.152;5.846;2023-02-11T06:07:47;29.50;;;16.35;;
52786;SDS011;38661;53.152;5.846;2023-02-11T06:10:13;27.73;;;17.42;;
52786;SDS011;38661;53.152;5.846;2023-02-11T06:12:39;31.63;;;15.57;;
52786;SDS011;38661;53.152;5.846;2023-02-11T06:15:05;32.53;;;17.38;;
52786;SDS011;38661;53.152;5.846;2023-02-11T06:17:31;28.50;;;15.65;;
52786;SDS011;38661;53.152;5.846;2023-02-11T06:20:01;28.67;;;16.40;;
52786;SDS011;38661;53.152;5.846;2023-02-11T06:22:28;31.95;;;16.95;;
52786;SDS011;38661;53.152;5.846;2023-02-11T06:24:54;30.50;;;17.42;;
52786;SDS011;38661;53.152;5.846;2023-02-11T06:27:20;32.03;;;17.85;;
52786;SDS011;38661;53.152;5.846;2023-02-11T06:29:46;32.08;;;16.98;;
52786;SDS011;38661;53.152;5.846;2023-02-11T06:32:12;31.58;;;17.30;;
52786;SDS011;38661;53.152;5.846;2023-02-11T06:34:38;29.65;;;16.05;;
52786;SDS011;38661;53.152;5.846;2023-02-11T06:37:04;33.70;;;17.42;;
52786;SDS011;38661;53.152;5.846;2023-02-11T06:39:30;34.83;;;17.83;;
52786;SDS011;38661;53.152;5.846;2023-02-11T06:41:56;30.17;;;15.75;;
52786;SDS011;38661;53.152;5.846;2023-02-11T06:44:22;34.65;;;19.05;;
52786;SDS011;38661;53.152;5.846;2023-02-11T06:46:47;33.50;;;17.88;;
52786;SDS011;38661;53.152;5.846;2023-02-11T06:49:13;38.63;;;16.77;;
52786;SDS011;38661;53.152;5.846;2023-02-11T06:51:39;33.53;;;16.23;;
52786;SDS011;38661;53.152;5.846;2023-02-11T06:54:05;27.85;;;15.20;;
52786;SDS011;38661;53.152;5.846;2023-02-11T06:56:31;32.95;;;19.33;;
52786;SDS011;38661;53.152;5.846;2023-02-11T06:58:57;27.95;;;13.02;;
52786;SDS011;38661;53.152;5.846;2023-02-11T07:01:24;36.25;;;16.55;;
52786;SDS011;38661;53.152;5.846;2023-02-11T07:03:50;37.72;;;16.27;;
52786;SDS011;38661;53.152;5.846;2023-02-11T07:06:19;33.22;;;18.58;;
52786;SDS011;38661;53.152;5.846;2023-02-11T07:08:47;30.02;;;16.80;;
52786;SDS011;38661;53.152;5.846;2023-02-11T07:11:17;32.85;;;15.90;;
52786;SDS011;38661;53.152;5.846;2023-02-11T07:13:48;36.35;;;18.90;;
52786;SDS011;38661;53.152;5.846;2023-02-11T07:16:15;32.53;;;18.25;;
52786;SDS011;38661;53.152;5.846;2023-02-11T07:18:42;40.70;;;20.80;;
52786;SDS011;38661;53.152;5.846;2023-02-11T07:21:10;29.65;;;15.10;;
52786;SDS011;38661;53.152;5.846;2023-02-11T07:23:37;35.65;;;18.90;;
52786;SDS011;38661;53.152;5.846;2023-02-11T07:26:05;41.28;;;17.83;;
52786;SDS011;38661;53.152;5.846;2023-02-11T07:28:32;45.03;;;20.15;;
52786;SDS011;38661;53.152;5.846;2023-02-11T07:30:59;32.42;;;18.73;;
52786;SDS011;38661;53.152;5.846;2023-02-11T07:33:29;33.88;;;17.17;;
52786;SDS011;38661;53.152;5.846;2023-02-11T07:35:58;32.50;;;18.17;;
52786;SDS011;38661;53.152;5.846;2023-02-11T07:38:24;36.15;;;18.65;;
52786;SDS011;38661;53.152;5.846;2023-02-11T07:40:50;34.05;;;17.40;;
52786;SDS011;38661;53.152;5.846;2023-02-11T07:43:16;37.15;;;19.77;;
52786;SDS011;38661;53.152;5.846;2023-02-11T07:45:42;37.67;;;20.85;;
52786;SDS011;38661;53.152;5.846;2023-02-11T07:48:07;31.40;;;19.60;;
52786;SDS011;38661;53.152;5.846;2023-02-11T07:50:33;45.20;;;20.63;;
52786;SDS011;38661;53.152;5.846;2023-02-11T07:52:59;38.70;;;18.20;;
52786;SDS011;38661;53.152;5.846;2023-02-11T07:55:24;34.45;;;17.55;;
52786;SDS011;38661;53.152;5.846;2023-02-11T07:57:50;29.27;;;16.45;;
52786;SDS011;38661;53.152;5.846;2023-02-11T08:00:16;29.73;;;16.60;;
52786;SDS011;38661;53.152;5.846;2023-02-11T08:02:42;30.27;;;17.05;;
52786;SDS011;38661;53.152;5.846;2023-02-11T08:05:07;34.10;;;16.67;;
52786;SDS011;38661;53.152;5.846;2023-02-11T08:07:33;34.72;;;16.67;;
52786;SDS011;38661;53.152;5.846;2023-02-11T08:09:59;33.25;;;16.92;;
52786;SDS011;38661;53.152;5.846;2023-02-11T08:12:24;34.58;;;15.13;;
52786;SDS011;38661;53.152;5.846;2023-02-11T08:14:50;32.67;;;16.85;;
52786;SDS011;38661;53.152;5.846;2023-02-11T08:17:16;34.47;;;16.15;;
52786;SDS011;38661;53.152;5.846;2023-02-11T08:19:42;27.70;;;15.02;;
52786;SDS011;38661;53.152;5.846;2023-02-11T08:22:07;35.97;;;16.65;;
52786;SDS011;38661;53.152;5.846;2023-02-11T08:24:33;38.50;;;16.52;;
52786;SDS011;38661;53.152;5.846;2023-02-11T08:26:59;27.25;;;14.50;;
52786;SDS011;38661;53.152;5.846;2023-02-11T08:29:24;36.95;;;17.05;;
52786;SDS011;38661;53.152;5.846;2023-02-11T08:31:50;34.10;;;16.33;;
52786;SDS011;38661;53.152;5.846;2023-02-11T08:34:16;28.88;;;14.85;;
52786;SDS011;38661;53.152;5.846;2023-02-11T08:36:43;33.05;;;15.65;;
52786;SDS011;38661;53.152;5.846;2023-02-11T08:39:14;26.45;;;14.20;;
52786;SDS011;38661;53.152;5.846;2023-02-11T08:41:45;35.95;;;16.75;;
52786;SDS011;38661;53.152;5.846;2023-02-11T08:44:13;30.45;;;14.98;;
52786;SDS011;38661;53.152;5.846;2023-02-11T08:46:38;36.00;;;15.40;;
52786;SDS011;38661;53.152;5.846;2023-02-11T08:49:04;26.42;;;14.60;;
52786;SDS011;38661;53.152;5.846;2023-02-11T08:51:30;30.58;;;13.65;;
52786;SDS011;38661;53.152;5.846;2023-02-11T08:53:56;32.45;;;16.02;;
52786;SDS011;38661;53.152;5.846;2023-02-11T08:56:22;33.13;;;14.60;;
52786;SDS011;38661;53.152;5.846;2023-02-11T08:58:48;22.88;;;14.65;;
52786;SDS011;38661;53.152;5.846;2023-02-11T09:01:16;30.15;;;14.88;;
52786;SDS011;38661;53.152;5.846;2023-02-11T09:03:44;25.60;;;14.10;;
52786;SDS011;38661;53.152;5.846;2023-02-11T09:06:10;25.10;;;12.82;;
52786;SDS011;38661;53.152;5.846;2023-02-11T09:08:38;24.73;;;11.50;;
52786;SDS011;38661;53.152;5.846;2023-02-11T09:11:07;22.63;;;11.02;;
52786;SDS011;38661;53.152;5.846;2023-02-11T09:13:34;27.17;;;12.02;;
52786;SDS011;38661;53.152;5.846;2023-02-11T09:16:01;26.17;;;11.27;;
52786;SDS011;38661;53.152;5.846;2023-02-11T09:18:28;22.33;;;9.57;;
52786;SDS011;38661;53.152;5.846;2023-02-11T09:21:01;18.23;;;10.60;;
52786;SDS011;38661;53.152;5.846;2023-02-11T09:23:28;26.05;;;10.95;;
52786;SDS011;38661;53.152;5.846;2023-02-11T09:25:54;20.23;;;9.50;;
52786;SDS011;38661;53.152;5.846;2023-02-11T09:28:20;20.65;;;8.75;;
52786;SDS011;38661;53.152;5.846;2023-02-11T09:30:46;22.10;;;8.70;;
52786;SDS011;38661;53.152;5.846;2023-02-11T09:33:11;18.08;;;8.75;;
52786;SDS011;38661;53.152;5.846;2023-02-11T09:35:37;22.13;;;8.45;;
52786;SDS011;38661;53.152;5.846;2023-02-11T09:38:03;16.70;;;8.75;;
52786;SDS011;38661;53.152;5.846;2023-02-11T09:40:28;14.85;;;8.18;;
52786;SDS011;38661;53.152;5.846;2023-02-11T09:43:09;17.48;;;8.00;;
52786;SDS011;38661;53.152;5.846;2023-02-11T09:45:41;16.85;;;8.07;;
52786;SDS011;38661;53.152;5.846;2023-02-11T09:50:49;21.15;;;7.75;;
52786;SDS011;38661;53.152;5.846;2023-02-11T09:53:25;15.25;;;7.57;;
52786;SDS011;38661;53.152;5.846;2023-02-11T09:56:08;18.60;;;6.35;;
52786;SDS011;38661;53.152;5.846;2023-02-11T09:58:40;17.63;;;6.65;;
52786;SDS011;38661;53.152;5.846;2023-02-11T10:04:12;12.63;;;6.55;;
52786;SDS011;38661;53.152;5.846;2023-02-11T10:06:49;20.25;;;7.15;;
52786;SDS011;38661;53.152;5.846;2023-02-11T10:09:28;17.52;;;7.57;;
52786;SDS011;38661;53.152;5.846;2023-02-11T10:12:02;15.77;;;6.78;;
52786;SDS011;38661;53.152;5.846;2023-02-11T10:21:03;15.15;;;6.82;;
52786;SDS011;38661;53.152;5.846;2023-02-11T10:23:58;17.67;;;7.70;;
52786;SDS011;38661;53.152;5.846;2023-02-11T10:26:26;17.85;;;6.28;;
52786;SDS011;38661;53.152;5.846;2023-02-11T10:28:55;16.05;;;5.82;;
52786;SDS011;38661;53.152;5.846;2023-02-11T10:31:26;14.90;;;7.20;;
52786;SDS011;38661;53.152;5.846;2023-02-11T10:36:28;15.32;;;5.40;;
52786;SDS011;38661;53.152;5.846;2023-02-11T10:38:59;15.43;;;6.20;;
52786;SDS011;38661;53.152;5.846;2023-02-11T10:41:34;17.02;;;5.22;;
52786;SDS011;38661;53.152;5.846;2023-02-11T10:44:02;15.13;;;5.38;;
52786;SDS011;38661;53.152;5.846;2023-02-11T10:46:31;13.00;;;3.92;;
52786;SDS011;38661;53.152;5.846;2023-02-11T10:49:00;18.58;;;5.88;;
52786;SDS011;38661;53.152;5.846;2023-02-11T10:51:29;14.43;;;5.10;;
52786;SDS011;38661;53.152;5.846;2023-02-11T10:56:57;12.38;;;4.20;;
52786;SDS011;38661;53.152;5.846;2023-02-11T10:59:41;11.75;;;4.13;;
52786;SDS011;38661;53.152;5.846;2023-02-11T11:02:20;12.27;;;5.55;;
52786;SDS011;38661;53.152;5.846;2023-02-11T11:04:56;16.13;;;4.47;;
52786;SDS011;38661;53.152;5.846;2023-02-11T11:07:25;16.85;;;5.32;;
52786;SDS011;38661;53.152;5.846;2023-02-11T11:09:57;11.88;;;3.38;;
52786;SDS011;38661;53.152;5.846;2023-02-11T11:12:32;8.48;;;3.65;;
52786;SDS011;38661;53.152;5.846;2023-02-11T11:17:48;14.27;;;4.47;;
52786;SDS011;38661;53.152;5.846;2023-02-11T11:20:34;9.98;;;3.53;;
52786;SDS011;38661;53.152;5.846;2023-02-11T11:25:42;11.88;;;3.67;;
52786;SDS011;38661;53.152;5.846;2023-02-11T11:28:23;11.05;;;3.97;;
52786;SDS011;38661;53.152;5.846;2023-02-11T11:30:51;10.55;;;3.58;;
52786;SDS011;38661;53.152;5.846;2023-02-11T11:33:22;12.48;;;4.45;;
52786;SDS011;38661;53.152;5.846;2023-02-11T11:35:58;14.68;;;4.32;;
52786;SDS011;38661;53.152;5.846;2023-02-11T11:38:30;12.77;;;3.88;;
52786;SDS011;38661;53.152;5.846;2023-02-11T11:43:53;22.65;;;4.85;;
52786;SDS011;38661;53.152;5.846;2023-02-11T11:46:24;12.43;;;4.28;;
52786;SDS011;38661;53.152;5.846;2023-02-11T11:48:53;18.55;;;6.50;;
52786;SDS011;38661;53.152;5.846;2023-02-11T11:51:25;14.27;;;3.58;;
52786;SDS011;38661;53.152;5.846;2023-02-11T11:56:21;14.73;;;3.75;;
52786;SDS011;38661;53.152;5.846;2023-02-11T11:58:49;11.40;;;3.53;;
52786;SDS011;38661;53.152;5.846;2023-02-11T12:26:17;15.70;;;4.35;;
52786;SDS011;38661;53.152;5.846;2023-02-11T12:34:30;15.93;;;3.78;;
52786;SDS011;38661;53.152;5.846;2023-02-11T12:37:41;7.93;;;3.25;;
52786;SDS011;38661;53.152;5.846;2023-02-11T12:43:20;14.25;;;3.13;;
52786;SDS011;38661;53.152;5.846;2023-02-11T12:49:30;17.67;;;4.63;;
52786;SDS011;38661;53.152;5.846;2023-02-11T12:55:00;15.45;;;3.85;;
52786;SDS011;38661;53.152;5.846;2023-02-11T12:57:33;9.53;;;5.17;;
52786;SDS011;38661;53.152;5.846;2023-02-11T13:05:37;14.40;;;4.20;;
52786;SDS011;38661;53.152;5.846;2023-02-11T13:10:46;11.75;;;3.50;;
52786;SDS011;38661;53.152;5.846;2023-02-11T13:13:22;15.30;;;3.60;;
52786;SDS011;38661;53.152;5.846;2023-02-11T13:24:23;14.13;;;4.10;;
52786;SDS011;38661;53.152;5.846;2023-02-11T13:27:07;12.00;;;4.13;;
52786;SDS011;38661;53.152;5.846;2023-02-11T13:35:38;9.52;;;3.80;;
52786;SDS011;38661;53.152;5.846;2023-02-11T13:38:05;19.42;;;3.63;;
52786;SDS011;38661;53.152;5.846;2023-02-11T13:41:22;19.15;;;4.25;;
52786;SDS011;38661;53.152;5.846;2023-02-11T13:43:44;19.08;;;4.95;;
52786;SDS011;38661;53.152;5.846;2023-02-11T13:46:26;15.02;;;3.58;;
52786;SDS011;38661;53.152;5.846;2023-02-11T13:48:54;17.60;;;4.72;;
52786;SDS011;38661;53.152;5.846;2023-02-11T13:51:33;13.57;;;3.67;;
52786;SDS011;38661;53.152;5.846;2023-02-11T13:54:00;16.02;;;3.75;;
52786;SDS011;38661;53.152;5.846;2023-02-11T13:56:39;19.55;;;3.63;;
52786;SDS011;38661;53.152;5.846;2023-02-11T14:02:08;11.45;;;2.80;;
52786;SDS011;38661;53.152;5.846;2023-02-11T14:10:55;11.02;;;3.03;;
52786;SDS011;38661;53.152;5.846;2023-02-11T14:13:29;10.27;;;3.75;;
52786;SDS011;38661;53.152;5.846;2023-02-11T14:16:38;13.02;;;3.17;;
52786;SDS011;38661;53.152;5.846;2023-02-11T14:21:21;9.82;;;3.03;;
52786;SDS011;38661;53.152;5.846;2023-02-11T14:24:38;17.52;;;4.13;;
52786;SDS011;38661;53.152;5.846;2023-02-11T14:26:45;15.57;;;3.95;;
52786;SDS011;38661;53.152;5.846;2023-02-11T14:29:14;18.02;;;3.35;;
52786;SDS011;38661;53.152;5.846;2023-02-11T14:32:02;12.68;;;3.30;;
52786;SDS011;38661;53.152;5.846;2023-02-11T14:42:50;8.85;;;3.95;;
52786;SDS011;38661;53.152;5.846;2023-02-11T14:45:25;18.42;;;3.50;;
52786;SDS011;38661;53.152;5.846;2023-02-11T14:50:31;13.52;;;3.78;;
52786;SDS011;38661;53.152;5.846;2023-02-11T14:53:05;14.70;;;4.03;;
52786;SDS011;38661;53.152;5.846;2023-02-11T14:55:38;13.07;;;3.13;;
52786;SDS011;38661;53.152;5.846;2023-02-11T14:58:13;11.48;;;3.40;;
52786;SDS011;38661;53.152;5.846;2023-02-11T15:01:22;17.40;;;4.43;;
52786;SDS011;38661;53.152;5.846;2023-02-11T15:03:49;14.75;;;3.70;;
52786;SDS011;38661;53.152;5.846;2023-02-11T15:06:16;15.65;;;3.25;;
52786;SDS011;38661;53.152;5.846;2023-02-11T15:08:52;12.82;;;3.20;;
52786;SDS011;38661;53.152;5.846;2023-02-11T15:11:20;15.70;;;3.20;;
52786;SDS011;38661;53.152;5.846;2023-02-11T15:13:48;14.80;;;3.35;;
52786;SDS011;38661;53.152;5.846;2023-02-11T15:16:24;15.73;;;4.38;;
52786;SDS011;38661;53.152;5.846;2023-02-11T15:18:56;14.35;;;3.72;;
52786;SDS011;38661;53.152;5.846;2023-02-11T15:21:26;10.80;;;4.25;;
52786;SDS011;38661;53.152;5.846;2023-02-11T15:23:59;18.88;;;4.30;;
52786;SDS011;38661;53.152;5.846;2023-02-11T15:26:44;19.60;;;5.93;;
52786;SDS011;38661;53.152;5.846;2023-02-11T15:29:15;10.80;;;3.95;;
52786;SDS011;38661;53.152;5.846;2023-02-11T15:31:41;14.88;;;3.83;;
52786;SDS011;38661;53.152;5.846;2023-02-11T15:34:07;20.60;;;4.57;;
52786;SDS011;38661;53.152;5.846;2023-02-11T15:36:33;15.70;;;4.47;;
52786;SDS011;38661;53.152;5.846;2023-02-11T15:41:54;16.55;;;3.70;;
52786;SDS011;38661;53.152;5.846;2023-02-11T15:44:27;17.17;;;3.65;;
52786;SDS011;38661;53.152;5.846;2023-02-11T15:46:56;14.65;;;4.47;;
52786;SDS011;38661;53.152;5.846;2023-02-11T15:49:23;19.85;;;5.47;;
52786;SDS011;38661;53.152;5.846;2023-02-11T15:51:50;12.73;;;4.80;;
52786;SDS011;38661;53.152;5.846;2023-02-11T15:54:19;16.80;;;4.13;;
52786;SDS011;38661;53.152;5.846;2023-02-11T15:56:48;13.35;;;3.55;;
52786;SDS011;38661;53.152;5.846;2023-02-11T15:59:29;11.27;;;3.33;;
52786;SDS011;38661;53.152;5.846;2023-02-11T16:02:22;11.55;;;3.83;;
52786;SDS011;38661;53.152;5.846;2023-02-11T16:05:06;13.75;;;4.13;;
52786;SDS011;38661;53.152;5.846;2023-02-11T16:10:19;23.30;;;5.32;;
52786;SDS011;38661;53.152;5.846;2023-02-11T16:18:20;11.73;;;3.53;;
52786;SDS011;38661;53.152;5.846;2023-02-11T16:20:54;17.63;;;3.33;;
52786;SDS011;38661;53.152;5.846;2023-02-11T16:23:25;18.15;;;3.95;;
52786;SDS011;38661;53.152;5.846;2023-02-11T16:26:03;14.40;;;4.93;;
52786;SDS011;38661;53.152;5.846;2023-02-11T16:28:31;21.33;;;4.60;;
52786;SDS011;38661;53.152;5.846;2023-02-11T16:30:57;17.70;;;3.60;;
52786;SDS011;38661;53.152;5.846;2023-02-11T16:33:23;19.25;;;4.88;;
52786;SDS011;38661;53.152;5.846;2023-02-11T16:35:49;12.95;;;4.90;;
52786;SDS011;38661;53.152;5.846;2023-02-11T16:38:15;19.83;;;5.28;;
52786;SDS011;38661;53.152;5.846;2023-02-11T16:40:42;22.58;;;6.97;;
52786;SDS011;38661;53.152;5.846;2023-02-11T16:43:10;12.43;;;3.67;;
52786;SDS011;38661;53.152;5.846;2023-02-11T16:45:36;14.80;;;3.47;;
52786;SDS011;38661;53.152;5.846;2023-02-11T16:48:06;13.43;;;3.67;;
52786;SDS011;38661;53.152;5.846;2023-02-11T16:50:34;18.25;;;3.60;;
52786;SDS011;38661;53.152;5.846;2023-02-11T16:53:00;11.50;;;3.85;;
52786;SDS011;38661;53.152;5.846;2023-02-11T16:55:30;15.55;;;3.85;;
52786;SDS011;38661;53.152;5.846;2023-02-11T16:57:57;17.50;;;3.80;;
52786;SDS011;38661;53.152;5.846;2023-02-11T17:00:23;13.02;;;3.92;;
52786;SDS011;38661;53.152;5.846;2023-02-11T17:02:48;14.70;;;3.63;;
52786;SDS011;38661;53.152;5.846;2023-02-11T17:05:15;22.10;;;4.72;;
52786;SDS011;38661;53.152;5.846;2023-02-11T17:07:44;12.02;;;4.28;;
52786;SDS011;38661;53.152;5.846;2023-02-11T17:10:22;16.75;;;3.70;;
52786;SDS011;38661;53.152;5.846;2023-02-11T17:12:49;13.85;;;4.38;;
52786;SDS011;38661;53.152;5.846;2023-02-11T17:15:15;10.25;;;3.58;;
52786;SDS011;38661;53.152;5.846;2023-02-11T17:17:41;19.65;;;4.15;;
52786;SDS011;38661;53.152;5.846;2023-02-11T17:20:09;23.42;;;8.35;;
52786;SDS011;38661;53.152;5.846;2023-02-11T17:22:38;19.30;;;6.70;;
52786;SDS011;38661;53.152;5.846;2023-02-11T17:25:04;17.27;;;5.85;;
52786;SDS011;38661;53.152;5.846;2023-02-11T17:27:30;16.15;;;4.28;;
52786;SDS011;38661;53.152;5.846;2023-02-11T17:29:56;13.93;;;4.60;;
52786;SDS011;38661;53.152;5.846;2023-02-11T17:32:22;21.17;;;5.13;;